Time;durP1;ratioP1;P1;durP2;ratioP2;P2;SDS_P1;SDS_P2;PMS_P1;PMS_P2;Temp;Humidity;BMP_temperature;BMP_pressure;BME280_temperature;BME280_humidity;BME280_pressure;Samples;Min_cycle;Max_cycle;Signal;HPM_P1;HPM_P2
2022/07/09 00:02:20;;;;;;;2.60;1.70;;;;;;;15.33;70.63;100878.02;105615;1281;25351;-72
2022/07/09 00:04:46;;;;;;;3.40;1.90;;;;;;;15.35;70.53;100877.45;105765;1279;22563;-79
2022/07/09 00:07:12;;;;;;;2.60;1.50;;;;;;;15.39;70.60;100874.21;105589;1279;22765;-73
2022/07/09 00:09:39;;;;;;;2.30;1.50;;;;;;;15.41;70.60;100874.15;105753;1278;25265;-75
2022/07/09 00:12:05;;;;;;;1.90;1.40;;;;;;;15.43;70.40;100870.73;105155;1284;25277;-73
2022/07/09 00:14:32;;;;;;;2.50;1.40;;;;;;;15.46;70.33;100872.80;105280;1284;22622;-74
2022/07/09 00:16:58;;;;;;;1.60;1.50;;;;;;;15.47;70.07;100871.88;105231;1284;24408;-80
2022/07/09 00:19:24;;;;;;;2.80;1.50;;;;;;;15.47;70.10;100873.29;105187;1284;22550;-76
2022/07/09 00:21:50;;;;;;;4.20;1.60;;;;;;;15.53;70.33;100875.30;105260;1285;24097;-77
2022/07/09 00:24:16;;;;;;;2.00;1.40;;;;;;;15.54;70.23;100881.85;105483;1282;25463;-76
2022/07/09 00:26:43;;;;;;;1.50;1.20;;;;;;;15.51;69.94;100885.45;105173;1281;24265;-75
2022/07/09 00:29:09;;;;;;;3.40;1.50;;;;;;;15.45;69.74;100880.98;105254;1281;22560;-72
2022/07/09 00:31:35;;;;;;;2.60;1.10;;;;;;;15.41;69.34;100877.70;105862;1277;22589;-75
2022/07/09 00:34:02;;;;;;;1.60;1.20;;;;;;;15.42;69.74;100876.78;105671;1278;25278;-74
2022/07/09 00:36:28;;;;;;;2.50;1.30;;;;;;;15.42;69.53;100875.90;105716;1278;24459;-73
2022/07/09 00:38:54;;;;;;;4.70;2.00;;;;;;;15.41;69.44;100876.27;105606;1277;22545;-74
2022/07/09 00:41:20;;;;;;;2.20;1.40;;;;;;;15.41;69.54;100872.20;105629;1277;22680;-77
2022/07/09 00:43:48;;;;;;;3.60;1.60;;;;;;;15.36;69.58;100873.54;105633;1277;22666;-75
2022/07/09 00:46:16;;;;;;;2.70;1.50;;;;;;;15.31;69.87;100872.74;105671;1275;22710;-75
2022/07/09 00:48:43;;;;;;;4.90;2.20;;;;;;;15.33;70.31;100870.39;105945;1273;24311;-76
2022/07/09 00:51:11;;;;;;;2.60;1.60;;;;;;;15.38;70.49;100873.33;105981;1273;23074;-75
2022/07/09 00:53:38;;;;;;;2.20;1.70;;;;;;;15.40;70.70;100871.33;106167;1274;22592;-75
2022/07/09 00:56:04;;;;;;;5.00;2.10;;;;;;;15.42;70.78;100872.35;105783;1277;22638;-75
2022/07/09 00:58:33;;;;;;;4.40;1.80;;;;;;;15.43;71.01;100869.14;105699;1277;24084;-76
2022/07/09 01:01:01;;;;;;;4.30;1.70;;;;;;;15.40;70.90;100867.79;105775;1277;22808;-75
2022/07/09 01:03:27;;;;;;;4.60;1.80;;;;;;;15.39;71.29;100865.14;105748;1277;22553;-76
2022/07/09 01:05:56;;;;;;;3.50;1.80;;;;;;;15.43;71.30;100860.60;105705;1276;22799;-72
2022/07/09 01:08:22;;;;;;;3.00;2.10;;;;;;;15.46;71.70;100863.56;105817;1277;25391;-73
2022/07/09 01:10:52;;;;;;;5.00;2.30;;;;;;;15.47;71.67;100860.88;105836;1277;24332;-78
2022/07/09 01:13:18;;;;;;;4.70;1.90;;;;;;;15.48;71.90;100856.07;105880;1276;23973;-74
2022/07/09 01:15:44;;;;;;;4.20;2.20;;;;;;;15.48;71.79;100853.05;105807;1278;22862;-72
2022/07/09 01:18:12;;;;;;;3.50;2.00;;;;;;;15.49;72.07;100860.65;105804;1277;23052;-72
2022/07/09 01:20:39;;;;;;;2.30;1.90;;;;;;;15.50;72.17;100860.63;105832;1274;22711;-75
2022/07/09 01:23:05;;;;;;;5.50;2.20;;;;;;;15.52;72.07;100861.31;106049;1273;25520;-75
2022/07/09 01:25:37;;;;;;;5.90;2.20;;;;;;;15.55;72.30;100857.68;105973;1274;25393;-74
2022/07/09 01:28:05;;;;;;;4.10;2.40;;;;;;;15.57;72.35;100853.56;106195;1273;24322;-77
2022/07/09 01:30:33;;;;;;;5.90;2.70;;;;;;;15.57;72.54;100850.52;105857;1276;22791;-81
2022/07/09 01:33:00;;;;;;;4.90;2.30;;;;;;;15.57;72.34;100843.96;106141;1272;22555;-76
2022/07/09 01:35:27;;;;;;;4.40;1.90;;;;;;;15.56;72.56;100841.52;106127;1273;23035;-74
2022/07/09 01:37:54;;;;;;;3.20;1.70;;;;;;;15.53;72.70;100846.71;106174;1273;23099;-75
2022/07/09 01:40:21;;;;;;;4.90;2.60;;;;;;;15.48;72.78;100843.63;106061;1273;25503;-72
2022/07/09 01:42:48;;;;;;;3.70;2.00;;;;;;;15.40;72.91;100844.00;106216;1273;25435;-74
2022/07/09 01:45:16;;;;;;;2.50;1.90;;;;;;;15.36;73.32;100842.13;106040;1272;22583;-75
2022/07/09 01:47:42;;;;;;;5.60;2.20;;;;;;;15.28;73.35;100838.37;106054;1273;22611;-73
2022/07/09 01:50:09;;;;;;;6.50;2.30;;;;;;;15.28;73.47;100837.31;105950;1273;22603;-76
2022/07/09 01:52:36;;;;;;;5.50;1.90;;;;;;;15.27;73.49;100835.92;105926;1273;22570;-70
2022/07/09 01:55:04;;;;;;;4.80;1.90;;;;;;;15.26;73.59;100841.63;105813;1273;23945;-72
2022/07/09 01:57:30;;;;;;;3.80;1.80;;;;;;;15.26;73.51;100842.35;105926;1273;22571;-74
2022/07/09 01:59:56;;;;;;;5.80;2.00;;;;;;;15.18;73.58;100845.88;106081;1273;22553;-71
2022/07/09 02:02:23;;;;;;;4.80;1.70;;;;;;;15.16;73.79;100845.76;105940;1274;22560;-75
2022/07/09 02:04:50;;;;;;;4.60;1.80;;;;;;;15.14;73.76;100847.38;105881;1272;22711;-71
2022/07/09 02:07:16;;;;;;;4.00;2.30;;;;;;;15.13;73.84;100848.64;105612;1278;22855;-71
2022/07/09 02:09:43;;;;;;;5.80;2.20;;;;;;;15.11;73.82;100847.80;105491;1277;25358;-72
2022/07/09 02:12:09;;;;;;;4.40;2.30;;;;;;;15.07;73.71;100848.23;105454;1278;25436;-73
2022/07/09 02:14:35;;;;;;;5.40;1.70;;;;;;;15.02;73.72;100840.35;105626;1277;22623;-71
2022/07/09 02:17:02;;;;;;;3.40;1.80;;;;;;;15.03;73.96;100833.41;105544;1278;22559;-73
2022/07/09 02:19:29;;;;;;;2.50;1.70;;;;;;;15.05;73.77;100834.09;105856;1277;22560;-74
2022/07/09 02:21:55;;;;;;;2.90;2.00;;;;;;;15.03;73.79;100831.64;105981;1278;25285;-76
2022/07/09 02:24:21;;;;;;;5.80;1.80;;;;;;;15.04;73.81;100830.03;105751;1278;25484;-76
2022/07/09 02:26:47;;;;;;;6.30;2.70;;;;;;;15.00;73.71;100832.59;106206;1274;22878;-75
2022/07/09 02:29:13;;;;;;;5.90;2.00;;;;;;;14.96;73.70;100838.70;105931;1274;25267;-72
2022/07/09 02:31:40;;;;;;;5.60;1.70;;;;;;;14.90;73.63;100834.02;105934;1273;22551;-74
2022/07/09 02:34:06;;;;;;;4.30;2.00;;;;;;;14.87;73.51;100833.20;106063;1274;22569;-73
2022/07/09 02:36:32;;;;;;;3.60;2.00;;;;;;;14.83;73.46;100831.86;105974;1272;22745;-73
2022/07/09 02:38:59;;;;;;;4.70;1.50;;;;;;;14.80;73.55;100829.42;106012;1273;22544;-73
2022/07/09 02:41:25;;;;;;;11.80;2.10;;;;;;;14.76;73.53;100831.43;105981;1274;22666;-73
2022/07/09 02:43:52;;;;;;;6.60;2.10;;;;;;;14.74;73.81;100832.19;105895;1275;22563;-73
2022/07/09 02:46:18;;;;;;;4.50;2.00;;;;;;;14.79;73.93;100831.23;106015;1274;22580;-76
2022/07/09 02:48:44;;;;;;;5.60;2.00;;;;;;;14.82;73.67;100833.83;105997;1273;25573;-73
2022/07/09 02:51:10;;;;;;;3.60;1.70;;;;;;;14.83;73.64;100831.15;106160;1273;22873;-76
2022/07/09 02:53:37;;;;;;;5.50;1.80;;;;;;;14.82;73.36;100831.52;106168;1273;25518;-78
2022/07/09 02:56:03;;;;;;;4.60;2.00;;;;;;;14.80;73.48;100833.69;106075;1272;24333;-73
2022/07/09 02:58:31;;;;;;;4.80;1.90;;;;;;;14.79;73.56;100827.17;106065;1273;22712;-76
2022/07/09 03:00:57;;;;;;;5.70;1.70;;;;;;;14.83;73.44;100833.10;106312;1273;22543;-78
2022/07/09 03:03:24;;;;;;;3.70;2.20;;;;;;;14.80;73.48;100831.91;105990;1273;25420;-74
2022/07/09 03:05:50;;;;;;;4.40;2.00;;;;;;;14.79;73.49;100828.38;106121;1272;22742;-74
2022/07/09 03:08:17;;;;;;;4.50;2.00;;;;;;;14.79;73.58;100826.96;106039;1273;23241;-75
2022/07/09 03:10:44;;;;;;;1.70;1.20;;;;;;;14.75;73.59;100820.29;105935;1275;22635;-73
2022/07/09 03:13:10;;;;;;;5.10;2.10;;;;;;;14.74;73.62;100824.73;105959;1273;24305;-72
2022/07/09 03:15:38;;;;;;;6.60;2.10;;;;;;;14.70;73.59;100819.66;105964;1274;24659;-70
2022/07/09 03:18:07;;;;;;;5.40;2.00;;;;;;;14.70;73.69;100822.68;105541;1276;24100;-70
2022/07/09 03:20:35;;;;;;;4.30;2.00;;;;;;;14.68;73.69;100824.31;105716;1277;25392;-72
2022/07/09 03:23:05;;;;;;;6.30;1.90;;;;;;;14.68;73.63;100819.17;105579;1276;23869;-72
2022/07/09 03:25:32;;;;;;;3.60;1.80;;;;;;;14.68;73.50;100817.94;105628;1276;25326;-73
2022/07/09 03:27:59;;;;;;;6.00;2.10;;;;;;;14.64;73.55;100816.94;105904;1277;22544;-73
2022/07/09 03:30:26;;;;;;;2.70;1.50;;;;;;;14.63;73.52;100819.27;105550;1276;22571;-71
2022/07/09 03:32:52;;;;;;;5.20;2.10;;;;;;;14.64;73.54;100817.85;105641;1277;22729;-73
2022/07/09 03:35:18;;;;;;;5.60;1.80;;;;;;;14.62;73.44;100813.09;105630;1277;22550;-73
2022/07/09 03:37:44;;;;;;;5.60;1.90;;;;;;;14.63;73.65;100815.73;105561;1279;22552;-72
2022/07/09 03:40:11;;;;;;;7.10;2.00;;;;;;;14.63;73.62;100816.63;105544;1278;22576;-75
2022/07/09 03:42:37;;;;;;;3.70;1.50;;;;;;;14.63;73.52;100821.58;105660;1275;22569;-76
2022/07/09 03:45:03;;;;;;;3.90;1.80;;;;;;;14.60;73.54;100821.09;106103;1272;26538;-77
2022/07/09 03:47:30;;;;;;;5.50;2.30;;;;;;;14.54;73.30;100824.95;105556;1278;25277;-76
2022/07/09 03:49:56;;;;;;;6.30;2.10;;;;;;;14.44;73.52;100822.81;105706;1277;25275;-75
2022/07/09 03:52:22;;;;;;;3.40;1.90;;;;;;;14.37;73.58;100817.45;105629;1277;25464;-76
2022/07/09 03:54:49;;;;;;;6.00;2.00;;;;;;;14.31;73.68;100818.45;105722;1278;26693;-88
2022/07/09 03:57:15;;;;;;;5.10;2.00;;;;;;;14.28;73.63;100821.69;105949;1278;22578;-72
2022/07/09 03:59:41;;;;;;;8.00;2.10;;;;;;;14.24;73.52;100821.92;106758;1278;22555;-73
2022/07/09 04:02:07;;;;;;;9.40;2.50;;;;;;;14.17;73.68;100815.67;106843;1276;25423;-75
2022/07/09 04:04:40;;;;;;;5.90;2.20;;;;;;;14.18;74.04;100817.42;107264;1277;22696;-72
2022/07/09 04:07:06;;;;;;;9.40;1.80;;;;;;;14.17;74.02;100818.86;107749;1273;25335;-73
2022/07/09 04:09:33;;;;;;;5.00;1.80;;;;;;;14.20;74.28;100813.13;107219;1273;25401;-74
2022/07/09 04:11:59;;;;;;;7.40;2.10;;;;;;;14.28;74.34;100810.88;108020;1271;22825;-71
2022/07/09 04:14:25;;;;;;;4.10;1.80;;;;;;;14.30;74.22;100811.19;107972;1271;22498;-73
2022/07/09 04:16:51;;;;;;;5.00;2.40;;;;;;;14.29;74.31;100810.48;108046;1271;22788;-83
2022/07/09 04:19:17;;;;;;;2.40;1.60;;;;;;;14.28;74.19;100810.16;107957;1271;22541;-73
2022/07/09 04:21:44;;;;;;;5.40;2.10;;;;;;;14.29;74.36;100811.02;107128;1271;493027;-72
2022/07/09 04:24:10;;;;;;;5.40;1.70;;;;;;;14.35;74.51;100811.63;106780;1271;24507;-74
2022/07/09 04:26:36;;;;;;;4.80;2.40;;;;;;;14.42;74.43;100808.88;106439;1273;25222;-73
2022/07/09 04:29:03;;;;;;;5.30;1.90;;;;;;;14.43;74.46;100803.52;106394;1271;25241;-74
2022/07/09 04:31:29;;;;;;;5.70;2.10;;;;;;;14.46;74.34;100800.45;106316;1271;23835;-75
2022/07/09 04:33:55;;;;;;;6.30;2.10;;;;;;;14.49;74.42;100797.73;106159;1271;24170;-74
2022/07/09 04:36:22;;;;;;;4.50;2.20;;;;;;;14.51;74.26;100794.70;106121;1271;22557;-72
2022/07/09 04:38:48;;;;;;;4.90;1.80;;;;;;;14.54;74.31;100792.50;106040;1271;23933;-75
2022/07/09 04:41:14;;;;;;;4.90;1.90;;;;;;;14.56;74.23;100789.27;106194;1271;22703;-76
2022/07/09 04:43:40;;;;;;;3.60;2.10;;;;;;;14.55;74.27;100790.89;106095;1273;22623;-76
2022/07/09 04:46:07;;;;;;;9.10;2.20;;;;;;;14.56;74.24;100789.99;106227;1271;22544;-70
2022/07/09 04:48:34;;;;;;;3.50;2.00;;;;;;;14.61;74.19;100795.73;105839;1273;26529;-73
2022/07/09 04:51:01;;;;;;;2.60;1.90;;;;;;;14.61;74.38;100794.66;106047;1271;25382;-72
2022/07/09 04:53:27;;;;;;;4.70;1.90;;;;;;;14.69;74.42;100800.38;106102;1273;22871;-75
2022/07/09 04:55:53;;;;;;;6.70;1.80;;;;;;;14.82;74.39;100804.40;105994;1273;25341;-72
2022/07/09 04:58:20;;;;;;;5.70;2.00;;;;;;;14.90;74.07;100809.55;105909;1273;25349;-72
2022/07/09 05:00:46;;;;;;;5.00;2.00;;;;;;;14.99;74.32;100809.56;105863;1273;22564;-75
2022/07/09 05:03:12;;;;;;;3.50;1.80;;;;;;;15.08;74.07;100807.96;106115;1273;23929;-74
2022/07/09 05:05:39;;;;;;;3.60;1.80;;;;;;;15.16;73.79;100803.70;105612;1278;25417;-73
2022/07/09 05:08:13;;;;;;;2.90;2.10;;;;;;;15.24;73.82;100799.98;105777;1278;25324;-72
2022/07/09 05:10:40;;;;;;;3.20;1.70;;;;;;;15.36;73.61;100799.54;105589;1277;22551;-72
2022/07/09 05:13:06;;;;;;;4.80;1.90;;;;;;;15.39;73.52;100804.26;105658;1278;25430;-71
2022/07/09 05:15:32;;;;;;;3.50;2.20;;;;;;;15.42;73.28;100803.30;105694;1278;22563;-73
2022/07/09 05:17:59;;;;;;;2.10;1.80;;;;;;;15.40;73.11;100808.34;105822;1279;22813;-85
2022/07/09 05:20:26;;;;;;;4.90;2.10;;;;;;;15.37;73.09;100807.52;105834;1281;25366;-72
2022/07/09 05:22:52;;;;;;;4.40;1.90;;;;;;;15.39;73.22;100806.05;106168;1279;23024;-72
2022/07/09 05:25:19;;;;;;;4.10;1.80;;;;;;;15.44;73.18;100805.39;106625;1277;26855;-75
2022/07/09 05:27:46;;;;;;;3.50;1.90;;;;;;;15.49;73.43;100805.45;106639;1278;25353;-76
2022/07/09 05:30:14;;;;;;;3.10;1.70;;;;;;;15.52;73.00;100808.23;106215;1273;22528;-71
2022/07/09 05:32:45;;;;;;;5.90;1.60;;;;;;;15.48;73.10;100810.27;106995;1273;22497;-74
2022/07/09 05:35:12;;;;;;;4.90;1.80;;;;;;;15.44;72.95;100799.36;106795;1273;22566;-72
2022/07/09 05:37:42;;;;;;;6.10;2.40;;;;;;;15.43;73.19;100792.47;106812;1271;25226;-75
2022/07/09 05:40:10;;;;;;;7.70;2.20;;;;;;;15.48;73.27;100797.67;106349;1272;23282;-73
2022/07/09 05:42:37;;;;;;;4.20;1.80;;;;;;;15.49;73.53;100797.48;106572;1274;25393;-74
2022/07/09 05:45:04;;;;;;;4.20;2.00;;;;;;;15.53;73.50;100798.27;106549;1271;22722;-77
2022/07/09 05:47:31;;;;;;;4.50;2.20;;;;;;;15.57;73.43;100791.41;106153;1272;25275;-78
2022/07/09 05:49:58;;;;;;;4.80;2.10;;;;;;;15.61;73.26;100797.92;106169;1273;22547;-79
2022/07/09 05:52:25;;;;;;;3.10;1.60;;;;;;;15.66;73.05;100800.83;106014;1273;22541;-79
2022/07/09 05:54:51;;;;;;;5.90;2.60;;;;;;;15.66;72.80;100796.90;106097;1273;22720;-77
2022/07/09 05:57:17;;;;;;;2.50;1.70;;;;;;;15.65;72.85;100797.66;106398;1271;24229;-75
2022/07/09 05:59:44;;;;;;;6.30;2.30;;;;;;;15.65;72.87;100793.20;106134;1273;22542;-73
2022/07/09 06:02:10;;;;;;;3.80;1.70;;;;;;;15.72;73.04;100793.73;106059;1271;22552;-74
2022/07/09 06:04:36;;;;;;;2.80;1.80;;;;;;;15.83;73.06;100791.71;106062;1273;22988;-73
2022/07/09 06:07:03;;;;;;;4.30;1.70;;;;;;;15.94;72.50;100790.73;105932;1273;25251;-75
2022/07/09 06:09:29;;;;;;;5.80;2.10;;;;;;;16.04;72.07;100787.13;106096;1273;25233;-74
2022/07/09 06:11:55;;;;;;;3.20;2.00;;;;;;;16.19;71.82;100783.19;106175;1271;22541;-74
2022/07/09 06:14:22;;;;;;;7.80;1.50;;;;;;;16.37;71.75;100776.31;106139;1273;24200;-76
2022/07/09 06:16:55;;;;;;;3.70;1.60;;;;;;;16.50;71.30;100773.64;105836;1271;22696;-77
2022/07/09 06:19:21;;;;;;;5.60;1.80;;;;;;;16.63;71.23;100770.09;106148;1274;25336;-76
2022/07/09 06:21:48;;;;;;;4.70;1.90;;;;;;;16.72;70.78;100769.15;105987;1271;23189;-75
2022/07/09 06:24:14;;;;;;;4.90;1.90;;;;;;;16.73;70.55;100767.33;106043;1273;22541;-74
2022/07/09 06:26:40;;;;;;;4.50;1.80;;;;;;;16.73;70.41;100766.45;105946;1274;22751;-73
2022/07/09 06:29:06;;;;;;;3.90;1.60;;;;;;;16.78;70.15;100769.48;105993;1273;25305;-75
2022/07/09 06:31:32;;;;;;;1.60;1.20;;;;;;;16.81;70.19;100766.73;105999;1273;23118;-73
2022/07/09 06:33:58;;;;;;;4.00;1.70;;;;;;;16.85;70.22;100770.19;105950;1274;25503;-74
2022/07/09 06:36:27;;;;;;;2.80;1.80;;;;;;;16.88;70.12;100767.95;105857;1271;23685;-76
2022/07/09 06:41:38;;;;;;;2.70;2.10;;;;;;;16.86;69.90;100764.64;106034;1274;24790;-80
2022/07/09 06:44:05;;;;;;;2.60;2.10;;;;;;;16.81;69.83;100765.31;105863;1274;22557;-82
2022/07/09 06:46:31;;;;;;;5.20;2.40;;;;;;;16.76;69.78;100761.20;106211;1273;22671;-74
2022/07/09 06:48:57;;;;;;;2.40;2.20;;;;;;;16.70;69.71;100760.46;106088;1274;25328;-72
2022/07/09 06:51:24;;;;;;;2.70;2.30;;;;;;;16.70;69.79;100762.61;105953;1274;22547;-71
2022/07/09 06:53:50;;;;;;;3.50;2.90;;;;;;;16.69;69.87;100754.81;105999;1272;24223;-74
2022/07/09 06:56:16;;;;;;;3.10;2.80;;;;;;;16.69;70.10;100757.48;106359;1271;25320;-74
2022/07/09 06:58:43;;;;;;;3.20;2.20;;;;;;;16.70;70.19;100755.67;106272;1271;25548;-72
2022/07/09 07:01:09;;;;;;;2.90;2.30;;;;;;;16.70;70.09;100750.50;105838;1271;22689;-76
2022/07/09 07:03:35;;;;;;;3.10;2.50;;;;;;;16.76;70.00;100747.52;106194;1271;24265;-74
2022/07/09 07:06:01;;;;;;;3.20;2.90;;;;;;;16.79;69.86;100749.20;106264;1271;25501;-74
2022/07/09 07:08:27;;;;;;;4.10;2.60;;;;;;;16.82;70.04;100750.88;106031;1274;22571;-71
2022/07/09 07:10:54;;;;;;;3.20;2.90;;;;;;;16.90;69.98;100750.47;106048;1273;23849;-74
2022/07/09 07:13:20;;;;;;;2.60;2.40;;;;;;;17.01;69.54;100748.56;106171;1274;22553;-75
2022/07/09 07:15:49;;;;;;;2.30;2.10;;;;;;;17.05;69.27;100747.54;106142;1271;22571;-81
2022/07/09 07:18:16;;;;;;;3.10;2.10;;;;;;;17.09;69.06;100740.16;106156;1273;24218;-75
2022/07/09 07:20:43;;;;;;;2.80;2.10;;;;;;;17.13;68.77;100738.78;106133;1273;25544;-76
2022/07/09 07:23:10;;;;;;;3.80;2.10;;;;;;;17.17;68.49;100741.88;106086;1274;25240;-74
2022/07/09 07:25:36;;;;;;;4.30;2.20;;;;;;;17.22;68.27;100736.92;105656;1280;24415;-74
2022/07/09 07:28:04;;;;;;;4.30;2.40;;;;;;;17.27;68.11;100735.31;105668;1279;22636;-75
2022/07/09 07:30:32;;;;;;;2.00;1.70;;;;;;;17.22;67.85;100732.13;105840;1279;22642;-76
2022/07/09 07:33:00;;;;;;;3.10;1.40;;;;;;;17.24;68.14;100733.09;105674;1279;22643;-76
2022/07/09 07:35:26;;;;;;;2.90;1.50;;;;;;;17.29;67.84;100733.13;105690;1278;23054;-75
2022/07/09 07:37:52;;;;;;;2.90;1.70;;;;;;;17.34;67.70;100729.98;105534;1279;23061;-79
2022/07/09 07:40:18;;;;;;;2.30;1.60;;;;;;;17.40;67.64;100731.90;105745;1279;23345;-74
2022/07/09 07:42:45;;;;;;;1.30;1.20;;;;;;;17.42;67.20;100726.85;105722;1279;22548;-75
2022/07/09 07:45:11;;;;;;;2.10;1.30;;;;;;;17.44;66.80;100723.39;105997;1273;24094;-85
2022/07/09 07:47:37;;;;;;;3.10;1.20;;;;;;;17.47;66.51;100724.55;106099;1271;22604;-70
2022/07/09 07:50:04;;;;;;;1.60;1.50;;;;;;;17.52;66.40;100724.91;105852;1273;22580;-73
2022/07/09 07:52:31;;;;;;;1.30;1.00;;;;;;;17.58;66.35;100723.83;106027;1273;22736;-72
2022/07/09 07:54:57;;;;;;;2.60;1.40;;;;;;;17.62;66.44;100725.15;106003;1273;26785;-72
2022/07/09 07:57:24;;;;;;;1.60;1.20;;;;;;;17.69;66.12;100723.31;106115;1271;24519;-74
2022/07/09 07:59:50;;;;;;;2.30;1.40;;;;;;;17.69;66.01;100716.54;106068;1271;22545;-74
2022/07/09 08:02:16;;;;;;;3.10;1.40;;;;;;;17.72;66.07;100714.13;106020;1273;22581;-74
2022/07/09 08:04:42;;;;;;;4.90;1.30;;;;;;;17.78;66.27;100712.13;105898;1273;22624;-74
2022/07/09 08:07:09;;;;;;;2.00;1.30;;;;;;;17.93;65.95;100702.88;106002;1273;22572;-75
2022/07/09 08:09:35;;;;;;;1.60;1.10;;;;;;;18.06;64.90;100699.91;106048;1273;25371;-74
2022/07/09 08:12:01;;;;;;;2.10;1.40;;;;;;;18.03;64.64;100696.65;105974;1273;22849;-74
2022/07/09 08:14:28;;;;;;;1.60;1.10;;;;;;;18.03;64.50;100695.08;106053;1273;22560;-74
2022/07/09 08:16:54;;;;;;;1.40;1.10;;;;;;;18.02;64.77;100694.23;105971;1273;24283;-74
2022/07/09 08:19:20;;;;;;;3.60;1.20;;;;;;;18.10;64.89;100699.64;105985;1272;25420;-74
2022/07/09 08:21:47;;;;;;;1.80;1.10;;;;;;;18.20;64.68;100704.45;106051;1272;25427;-74
2022/07/09 08:24:13;;;;;;;1.40;1.30;;;;;;;18.21;64.45;100704.27;105988;1273;25461;-72
2022/07/09 08:26:39;;;;;;;2.60;1.30;;;;;;;18.29;64.02;100696.30;105990;1274;22548;-73
2022/07/09 08:29:06;;;;;;;2.30;1.50;;;;;;;18.41;63.60;100691.43;105970;1272;24410;-74
2022/07/09 08:31:32;;;;;;;3.80;1.50;;;;;;;18.62;63.27;100687.98;106176;1273;22577;-72
2022/07/09 08:33:58;;;;;;;3.80;1.20;;;;;;;18.81;62.92;100691.70;105527;1278;25334;-73
2022/07/09 08:36:24;;;;;;;4.50;1.60;;;;;;;18.82;61.82;100684.89;105660;1279;22565;-71
2022/07/09 08:38:50;;;;;;;5.20;1.40;;;;;;;18.92;62.08;100684.52;105455;1279;24377;-71
2022/07/09 08:41:19;;;;;;;1.80;1.10;;;;;;;19.09;61.59;100686.34;105610;1278;23378;-75
2022/07/09 08:43:53;;;;;;;2.70;1.20;;;;;;;19.26;60.70;100684.64;105634;1279;25265;-75
2022/07/09 08:46:20;;;;;;;3.00;1.20;;;;;;;19.36;60.38;100684.02;105677;1280;22550;-76
2022/07/09 08:48:48;;;;;;;1.80;1.00;;;;;;;19.36;59.25;100674.91;105793;1279;25344;-74
2022/07/09 08:51:14;;;;;;;3.20;1.20;;;;;;;19.32;59.41;100671.19;105460;1278;23965;-76
2022/07/09 08:53:43;;;;;;;1.40;1.00;;;;;;;19.29;59.67;100661.10;106124;1273;24295;-72
2022/07/09 08:56:11;;;;;;;2.30;1.10;;;;;;;19.32;59.41;100671.70;106137;1273;25271;-72
2022/07/09 08:58:38;;;;;;;4.00;1.30;;;;;;;19.28;59.20;100665.77;106117;1273;25274;-76
2022/07/09 09:01:06;;;;;;;2.60;1.20;;;;;;;19.34;59.04;100661.08;106111;1273;25333;-75
2022/07/09 09:03:33;;;;;;;3.80;1.00;;;;;;;19.47;58.62;100666.10;106200;1274;25253;-77
2022/07/09 09:06:08;;;;;;;1.80;1.10;;;;;;;19.54;57.85;100663.10;106123;1273;25600;-81
2022/07/09 09:08:41;;;;;;;1.60;1.00;;;;;;;19.60;57.47;100657.86;106127;1273;22750;-73
2022/07/09 09:11:17;;;;;;;2.20;1.20;;;;;;;19.70;57.57;100649.40;106181;1273;24241;-78
2022/07/09 09:13:44;;;;;;;2.80;1.30;;;;;;;19.76;57.16;100649.66;106107;1273;25331;-73
2022/07/09 09:16:13;;;;;;;1.70;0.90;;;;;;;19.76;56.54;100647.38;106278;1273;26537;-72
2022/07/09 09:18:44;;;;;;;4.10;1.10;;;;;;;19.75;56.19;100638.45;106401;1273;24214;-73
2022/07/09 09:21:12;;;;;;;3.50;0.90;;;;;;;19.87;56.53;100640.77;106399;1273;22538;-77
2022/07/09 09:23:44;;;;;;;0.90;0.80;;;;;;;20.06;55.22;100638.92;106290;1273;24228;-75
2022/07/09 09:26:16;;;;;;;1.20;0.90;;;;;;;20.13;54.49;100636.10;106205;1274;25601;-72
2022/07/09 09:28:47;;;;;;;4.00;1.10;;;;;;;20.14;54.47;100632.46;106377;1273;22775;-74
2022/07/09 09:31:22;;;;;;;1.60;1.00;;;;;;;20.12;54.32;100632.05;106398;1273;24541;-73
2022/07/09 09:33:51;;;;;;;2.40;1.30;;;;;;;20.01;54.55;100629.27;106278;1273;23213;-75
2022/07/09 09:36:34;;;;;;;3.30;1.40;;;;;;;19.95;54.72;100633.83;106547;1273;23231;-75
2022/07/09 09:39:08;;;;;;;2.70;1.30;;;;;;;19.88;54.38;100626.27;106538;1273;23908;-72
2022/07/09 09:41:34;;;;;;;2.10;0.90;;;;;;;19.84;53.53;100631.11;106374;1273;22616;-76
2022/07/09 09:44:29;;;;;;;2.30;1.20;;;;;;;19.79;53.48;100630.60;106189;1273;22641;-77
2022/07/09 09:46:57;;;;;;;3.20;1.20;;;;;;;19.76;53.42;100624.48;106193;1272;22720;-76
2022/07/09 09:49:23;;;;;;;4.90;1.30;;;;;;;19.77;53.56;100622.64;106307;1271;25375;-76
2022/07/09 09:52:07;;;;;;;3.10;1.30;;;;;;;20.00;53.58;100617.36;106526;1273;25380;-73
2022/07/09 09:54:35;;;;;;;2.60;1.00;;;;;;;20.18;53.31;100613.73;106694;1273;22854;-75
2022/07/09 09:57:13;;;;;;;1.90;1.20;;;;;;;20.38;52.97;100621.05;106515;1272;22616;-75
2022/07/09 09:59:41;;;;;;;3.00;1.60;;;;;;;20.50;52.21;100609.56;106362;1273;24234;-77
2022/07/09 10:02:09;;;;;;;2.40;1.20;;;;;;;20.57;52.06;100606.95;106257;1273;25266;-78
2022/07/09 10:04:38;;;;;;;4.40;1.20;;;;;;;20.69;51.19;100601.01;106230;1273;25334;-76
2022/07/09 10:07:06;;;;;;;2.00;1.10;;;;;;;20.81;50.57;100586.95;106108;1273;24336;-76
2022/07/09 10:09:32;;;;;;;2.90;1.40;;;;;;;21.03;49.53;100594.17;106160;1272;22662;-78
2022/07/09 10:11:59;;;;;;;4.10;1.30;;;;;;;21.20;48.60;100587.61;105958;1273;24304;-78
2022/07/09 10:14:34;;;;;;;3.40;1.30;;;;;;;21.32;48.14;100578.41;106058;1273;22862;-76
2022/07/09 10:17:16;;;;;;;2.20;1.20;;;;;;;21.49;48.32;100581.31;106089;1273;22825;-75
2022/07/09 10:20:04;;;;;;;2.80;1.20;;;;;;;21.51;47.07;100579.02;106224;1273;25445;-79
2022/07/09 10:22:37;;;;;;;1.90;1.00;;;;;;;21.34;47.31;100581.17;106079;1274;22648;-77
2022/07/09 10:25:04;;;;;;;2.00;1.40;;;;;;;21.10;47.75;100581.85;106376;1273;25420;-75
2022/07/09 10:27:41;;;;;;;2.90;1.50;;;;;;;20.89;48.23;100582.30;106444;1273;25359;-77
2022/07/09 10:30:09;;;;;;;2.40;1.10;;;;;;;20.76;48.78;100582.59;106466;1273;26660;-75
2022/07/09 10:32:42;;;;;;;3.30;1.30;;;;;;;20.72;49.20;100580.25;106701;1278;24472;-75
2022/07/09 10:35:09;;;;;;;3.80;1.00;;;;;;;21.04;49.61;100579.80;107330;1279;22945;-73
2022/07/09 10:37:43;;;;;;;2.80;1.30;;;;;;;21.31;49.22;100568.63;107183;1279;23160;-75
2022/07/09 10:40:17;;;;;;;2.70;0.90;;;;;;;21.43;48.14;100567.45;107270;1279;22694;-75
2022/07/09 10:42:57;;;;;;;3.10;1.10;;;;;;;21.61;48.52;100562.98;106867;1279;22488;-74
2022/07/09 10:45:25;;;;;;;2.40;1.10;;;;;;;21.73;47.41;100557.09;106546;1279;24110;-74
2022/07/09 10:47:56;;;;;;;2.00;1.00;;;;;;;21.91;47.15;100552.64;106853;1278;22864;-75
2022/07/09 10:50:24;;;;;;;2.40;1.00;;;;;;;22.09;46.74;100554.87;105783;1280;22638;-76
2022/07/09 10:52:51;;;;;;;4.80;1.40;;;;;;;22.12;46.07;100558.11;105969;1279;25308;-77
2022/07/09 10:55:19;;;;;;;3.20;1.20;;;;;;;21.99;46.04;100555.40;105820;1278;22564;-77
2022/07/09 10:57:46;;;;;;;4.30;1.10;;;;;;;21.77;45.05;100556.01;105605;1284;24373;-74
2022/07/09 11:00:21;;;;;;;2.20;1.10;;;;;;;21.74;44.70;100559.73;105618;1284;22551;-74
2022/07/09 11:02:57;;;;;;;1.70;0.90;;;;;;;21.86;44.87;100551.98;105503;1284;22872;-75
2022/07/09 11:05:26;;;;;;;3.40;1.20;;;;;;;21.90;44.82;100546.90;104964;1287;22642;-72
2022/07/09 11:08:07;;;;;;;2.60;1.10;;;;;;;21.96;44.47;100552.70;105111;1287;24313;-75
2022/07/09 11:10:38;;;;;;;1.50;1.20;;;;;;;22.15;44.36;100553.27;104894;1287;24262;-76
2022/07/09 11:13:06;;;;;;;3.00;1.30;;;;;;;22.32;43.59;100553.60;104841;1287;23982;-75
2022/07/09 11:15:34;;;;;;;8.70;1.60;;;;;;;22.26;43.90;100553.39;105089;1284;22566;-75
2022/07/09 11:18:01;;;;;;;1.60;1.20;;;;;;;22.17;43.90;100551.73;105233;1284;25293;-76
2022/07/09 11:20:29;;;;;;;2.80;1.20;;;;;;;22.17;44.09;100550.83;105306;1284;25498;-87
2022/07/09 11:22:56;;;;;;;3.20;0.90;;;;;;;22.26;43.97;100549.29;105508;1275;26287;-78